sensor_id;sensor_type;location;lat;lon;timestamp;pressure;altitude;pressure_sealevel;temperature;humidity
30873;BME280;17579;42.690;2.586;2023-05-19T00:02:11;97340.25;;;15.50;38.54
30873;BME280;17579;42.690;2.586;2023-05-19T00:04:42;97330.75;;;15.48;38.64
30873;BME280;17579;42.690;2.586;2023-05-19T00:07:15;97334.25;;;15.48;38.53
30873;BME280;17579;42.690;2.586;2023-05-19T00:09:57;97331.56;;;15.48;38.60
30873;BME280;17579;42.690;2.586;2023-05-19T00:12:36;97325.44;;;15.48;38.50
30873;BME280;17579;42.690;2.586;2023-05-19T00:15:04;97310.44;;;15.47;38.63
30873;BME280;17579;42.690;2.586;2023-05-19T00:17:42;97315.94;;;15.45;38.81
30873;BME280;17579;42.690;2.586;2023-05-19T00:20:11;97320.63;;;15.43;38.78
30873;BME280;17579;42.690;2.586;2023-05-19T00:22:47;97311.13;;;15.40;38.83
30873;BME280;17579;42.690;2.586;2023-05-19T00:25:25;97312.13;;;15.39;38.79
30873;BME280;17579;42.690;2.586;2023-05-19T00:27:59;97316.66;;;15.39;38.82
30873;BME280;17579;42.690;2.586;2023-05-19T00:30:45;97306.34;;;15.36;38.70
30873;BME280;17579;42.690;2.586;2023-05-19T00:33:24;97306.84;;;15.31;38.81
30873;BME280;17579;42.690;2.586;2023-05-19T00:35:50;97305.03;;;15.32;39.08
30873;BME280;17579;42.690;2.586;2023-05-19T00:38:47;97305.22;;;15.22;38.90
30873;BME280;17579;42.690;2.586;2023-05-19T00:41:18;97301.03;;;15.28;38.99
30873;BME280;17579;42.690;2.586;2023-05-19T00:43:56;97294.91;;;15.19;38.99
30873;BME280;17579;42.690;2.586;2023-05-19T00:46:32;97284.72;;;15.22;39.29
30873;BME280;17579;42.690;2.586;2023-05-19T00:49:23;97279.28;;;15.16;39.17
30873;BME280;17579;42.690;2.586;2023-05-19T00:51:49;97280.25;;;15.23;39.40
30873;BME280;17579;42.690;2.586;2023-05-19T00:54:17;97272.94;;;15.17;39.52
30873;BME280;17579;42.690;2.586;2023-05-19T00:56:55;97277.44;;;15.16;39.80
30873;BME280;17579;42.690;2.586;2023-05-19T00:59:49;97270.97;;;15.11;39.71
30873;BME280;17579;42.690;2.586;2023-05-19T01:02:18;97267.97;;;15.14;40.07
30873;BME280;17579;42.690;2.586;2023-05-19T01:04:56;97253.50;;;15.08;40.42
30873;BME280;17579;42.690;2.586;2023-05-19T01:07:24;97251.19;;;15.05;40.44
30873;BME280;17579;42.690;2.586;2023-05-19T01:10:12;97257.69;;;15.02;40.62
30873;BME280;17579;42.690;2.586;2023-05-19T01:13:03;97255.88;;;15.03;41.00
30873;BME280;17579;42.690;2.586;2023-05-19T01:15:56;97253.22;;;14.95;40.72
30873;BME280;17579;42.690;2.586;2023-05-19T01:18:30;97249.41;;;14.97;41.22
30873;BME280;17579;42.690;2.586;2023-05-19T01:32:03;97229.09;;;14.88;41.90
30873;BME280;17579;42.690;2.586;2023-05-19T01:34:33;97236.28;;;14.87;41.82
30873;BME280;17579;42.690;2.586;2023-05-19T01:37:02;97229.97;;;14.88;41.96
30873;BME280;17579;42.690;2.586;2023-05-19T01:39:39;97243.09;;;14.90;42.19
30873;BME280;17579;42.690;2.586;2023-05-19T01:42:13;97234.09;;;14.91;41.73
30873;BME280;17579;42.690;2.586;2023-05-19T01:44:48;97238.41;;;14.92;42.20
30873;BME280;17579;42.690;2.586;2023-05-19T01:47:26;97227.75;;;14.92;41.91
30873;BME280;17579;42.690;2.586;2023-05-19T01:49:55;97232.13;;;14.85;42.13
30873;BME280;17579;42.690;2.586;2023-05-19T01:52:38;97222.16;;;14.79;41.96
30873;BME280;17579;42.690;2.586;2023-05-19T01:55:29;97226.00;;;14.76;42.03
30873;BME280;17579;42.690;2.586;2023-05-19T02:00:51;97217.38;;;14.74;42.20
30873;BME280;17579;42.690;2.586;2023-05-19T02:06:11;97204.06;;;14.74;42.58
30873;BME280;17579;42.690;2.586;2023-05-19T02:08:56;97214.34;;;14.77;42.53
30873;BME280;17579;42.690;2.586;2023-05-19T02:11:33;97205.19;;;14.80;42.49
30873;BME280;17579;42.690;2.586;2023-05-19T02:14:10;97206.19;;;14.79;42.54
30873;BME280;17579;42.690;2.586;2023-05-19T02:16:42;97205.19;;;14.80;42.72
30873;BME280;17579;42.690;2.586;2023-05-19T02:19:20;97198.38;;;14.77;42.67
30873;BME280;17579;42.690;2.586;2023-05-19T02:21:53;97190.69;;;14.82;42.76
30873;BME280;17579;42.690;2.586;2023-05-19T02:24:29;97200.34;;;14.83;42.72
30873;BME280;17579;42.690;2.586;2023-05-19T02:26:57;97204.84;;;14.83;42.64
30873;BME280;17579;42.690;2.586;2023-05-19T02:29:27;97201.16;;;14.84;42.85
30873;BME280;17579;42.690;2.586;2023-05-19T02:32:00;97205.03;;;14.81;42.41
30873;BME280;17579;42.690;2.586;2023-05-19T02:34:33;97205.50;;;14.85;42.98
30873;BME280;17579;42.690;2.586;2023-05-19T02:37:13;97206.50;;;14.84;43.14
30873;BME280;17579;42.690;2.586;2023-05-19T02:39:40;97203.00;;;14.83;43.18
30873;BME280;17579;42.690;2.586;2023-05-19T02:42:09;97203.34;;;14.80;43.10
30873;BME280;17579;42.690;2.586;2023-05-19T02:44:45;97201.22;;;14.76;43.14
30873;BME280;17579;42.690;2.586;2023-05-19T02:47:18;97197.22;;;14.80;43.47
30873;BME280;17579;42.690;2.586;2023-05-19T02:49:44;97210.03;;;14.76;43.63
30873;BME280;17579;42.690;2.586;2023-05-19T02:52:10;97213.84;;;14.73;43.72
30873;BME280;17579;42.690;2.586;2023-05-19T02:54:46;97202.75;;;14.70;43.45
30873;BME280;17579;42.690;2.586;2023-05-19T02:57:12;97201.72;;;14.71;43.56
30873;BME280;17579;42.690;2.586;2023-05-19T02:59:50;97198.59;;;14.67;43.88
30873;BME280;17579;42.690;2.586;2023-05-19T03:02:16;97196.91;;;14.66;43.91
30873;BME280;17579;42.690;2.586;2023-05-19T03:05:04;97200.91;;;14.62;43.59
30873;BME280;17579;42.690;2.586;2023-05-19T03:07:34;97199.41;;;14.68;44.00
30873;BME280;17579;42.690;2.586;2023-05-19T03:10:07;97198.25;;;14.62;44.01
30873;BME280;17579;42.690;2.586;2023-05-19T03:12:35;97193.59;;;14.64;44.68
30873;BME280;17579;42.690;2.586;2023-05-19T03:15:11;97197.59;;;14.60;44.35
30873;BME280;17579;42.690;2.586;2023-05-19T03:17:52;97189.78;;;14.67;44.50
30873;BME280;17579;42.690;2.586;2023-05-19T03:20:47;97200.59;;;14.65;44.41
30873;BME280;17579;42.690;2.586;2023-05-19T03:23:16;97198.75;;;14.66;44.52
30873;BME280;17579;42.690;2.586;2023-05-19T03:26:09;97183.28;;;14.61;44.19
30873;BME280;17579;42.690;2.586;2023-05-19T03:28:48;97195.56;;;14.70;44.49
30873;BME280;17579;42.690;2.586;2023-05-19T03:31:24;97197.75;;;14.67;44.50
30873;BME280;17579;42.690;2.586;2023-05-19T03:34:09;97205.88;;;14.73;44.59
30873;BME280;17579;42.690;2.586;2023-05-19T03:36:43;97208.25;;;14.68;44.40
30873;BME280;17579;42.690;2.586;2023-05-19T03:42:11;97191.91;;;14.71;44.99
30873;BME280;17579;42.690;2.586;2023-05-19T03:44:41;97196.56;;;14.69;45.00
30873;BME280;17579;42.690;2.586;2023-05-19T03:47:12;97200.59;;;14.65;45.21
30873;BME280;17579;42.690;2.586;2023-05-19T03:49:43;97192.63;;;14.65;44.92
30873;BME280;17579;42.690;2.586;2023-05-19T03:52:13;97197.25;;;14.63;45.21
30873;BME280;17579;42.690;2.586;2023-05-19T03:54:48;97193.78;;;14.63;45.38
30873;BME280;17579;42.690;2.586;2023-05-19T03:57:21;97201.91;;;14.61;45.36
30873;BME280;17579;42.690;2.586;2023-05-19T03:59:50;97201.91;;;14.61;45.39
30873;BME280;17579;42.690;2.586;2023-05-19T04:02:18;97201.91;;;14.61;45.28
30873;BME280;17579;42.690;2.586;2023-05-19T04:04:49;97198.41;;;14.61;45.61
30873;BME280;17579;42.690;2.586;2023-05-19T04:07:15;97200.91;;;14.62;45.44
30873;BME280;17579;42.690;2.586;2023-05-19T04:09:48;97202.22;;;14.58;45.15
30873;BME280;17579;42.690;2.586;2023-05-19T04:12:21;97196.09;;;14.58;45.20
30873;BME280;17579;42.690;2.586;2023-05-19T04:14:59;97197.59;;;14.60;45.62
30873;BME280;17579;42.690;2.586;2023-05-19T04:17:30;97203.72;;;14.61;45.40
30873;BME280;17579;42.690;2.586;2023-05-19T04:20:01;97211.56;;;14.62;45.28
30873;BME280;17579;42.690;2.586;2023-05-19T04:22:55;97213.56;;;14.60;45.44
30873;BME280;17579;42.690;2.586;2023-05-19T04:25:21;97207.56;;;14.66;45.65
30873;BME280;17579;42.690;2.586;2023-05-19T04:27:49;97216.06;;;14.62;45.84
30873;BME280;17579;42.690;2.586;2023-05-19T04:30:17;97203.59;;;14.62;45.83
30873;BME280;17579;42.690;2.586;2023-05-19T04:32:49;97210.22;;;14.58;45.64
30873;BME280;17579;42.690;2.586;2023-05-19T04:35:21;97214.53;;;14.59;45.95
30873;BME280;17579;42.690;2.586;2023-05-19T04:37:46;97214.38;;;14.61;45.74
30873;BME280;17579;42.690;2.586;2023-05-19T04:40:15;97210.88;;;14.60;45.92
30873;BME280;17579;42.690;2.586;2023-05-19T04:42:50;97216.06;;;14.62;45.79
30873;BME280;17579;42.690;2.586;2023-05-19T04:45:21;97214.38;;;14.61;45.67
30873;BME280;17579;42.690;2.586;2023-05-19T04:47:50;97227.69;;;14.61;45.71
30873;BME280;17579;42.690;2.586;2023-05-19T04:50:18;97223.22;;;14.61;46.00
30873;BME280;17579;42.690;2.586;2023-05-19T04:52:50;97224.38;;;14.59;46.08
30873;BME280;17579;42.690;2.586;2023-05-19T04:55:16;97218.56;;;14.63;46.05
30873;BME280;17579;42.690;2.586;2023-05-19T04:57:44;97222.03;;;14.64;46.18
30873;BME280;17579;42.690;2.586;2023-05-19T05:00:10;97216.72;;;14.64;45.88
30873;BME280;17579;42.690;2.586;2023-05-19T05:02:38;97216.41;;;14.67;46.21
30873;BME280;17579;42.690;2.586;2023-05-19T05:05:10;97215.56;;;14.66;46.11
30873;BME280;17579;42.690;2.586;2023-05-19T05:10:42;97210.38;;;14.73;46.32
30873;BME280;17579;42.690;2.586;2023-05-19T05:13:27;97201.72;;;14.71;46.01
30873;BME280;17579;42.690;2.586;2023-05-19T05:16:09;97213.34;;;14.78;46.04
30873;BME280;17579;42.690;2.586;2023-05-19T05:18:39;97196.72;;;14.76;46.19
30873;BME280;17579;42.690;2.586;2023-05-19T05:21:16;97199.88;;;14.80;46.09
30873;BME280;17579;42.690;2.586;2023-05-19T05:23:50;97207.50;;;14.83;46.16
30873;BME280;17579;42.690;2.586;2023-05-19T05:26:22;97198.13;;;14.95;46.29
30873;BME280;17579;42.690;2.586;2023-05-19T05:29:01;97215.75;;;14.96;45.95
30873;BME280;17579;42.690;2.586;2023-05-19T05:31:43;97209.94;;;14.93;45.88
30873;BME280;17579;42.690;2.586;2023-05-19T05:34:09;97205.75;;;14.98;45.90
30873;BME280;17579;42.690;2.586;2023-05-19T05:36:45;97209.09;;;15.00;45.96
30873;BME280;17579;42.690;2.586;2023-05-19T05:39:13;97210.09;;;14.99;45.89
30873;BME280;17579;42.690;2.586;2023-05-19T05:42:01;97212.94;;;14.98;45.73
30873;BME280;17579;42.690;2.586;2023-05-19T05:44:33;97218.50;;;15.11;45.47
30873;BME280;17579;42.690;2.586;2023-05-19T05:47:05;97214.03;;;15.12;45.43
30873;BME280;17579;42.690;2.586;2023-05-19T05:49:32;97212.19;;;15.12;45.64
30873;BME280;17579;42.690;2.586;2023-05-19T05:52:02;97220.19;;;15.12;45.55
30873;BME280;17579;42.690;2.586;2023-05-19T05:54:34;97215.34;;;15.16;45.58
30873;BME280;17579;42.690;2.586;2023-05-19T05:57:05;97223.16;;;15.17;45.68
30873;BME280;17579;42.690;2.586;2023-05-19T05:59:31;97217.94;;;15.24;45.72
30873;BME280;17579;42.690;2.586;2023-05-19T06:02:08;97217.13;;;15.23;45.20
30873;BME280;17579;42.690;2.586;2023-05-19T06:04:34;97225.75;;;15.25;45.37
30873;BME280;17579;42.690;2.586;2023-05-19T06:07:02;97226.44;;;15.28;45.43
30873;BME280;17579;42.690;2.586;2023-05-19T06:11:01;97224.41;;;15.30;45.36
30873;BME280;17579;42.690;2.586;2023-05-19T06:12:31;97214.41;;;15.32;45.08
30873;BME280;17579;42.690;2.586;2023-05-19T06:15:10;97230.06;;;15.35;45.54
30873;BME280;17579;42.690;2.586;2023-05-19T06:17:51;97225.53;;;15.35;45.12
30873;BME280;17579;42.690;2.586;2023-05-19T06:20:19;97223.38;;;15.39;44.98
30873;BME280;17579;42.690;2.586;2023-05-19T06:23:11;97222.78;;;15.29;45.10
30873;BME280;17579;42.690;2.586;2023-05-19T06:28:25;97215.41;;;15.31;45.10
30873;BME280;17579;42.690;2.586;2023-05-19T06:30:51;97218.25;;;15.29;45.46
30873;BME280;17579;42.690;2.586;2023-05-19T06:33:29;97219.38;;;15.35;45.36
30873;BME280;17579;42.690;2.586;2023-05-19T06:35:55;97227.03;;;15.38;45.62
30873;BME280;17579;42.690;2.586;2023-05-19T06:38:24;97208.19;;;15.39;45.32
30873;BME280;17579;42.690;2.586;2023-05-19T06:40:51;97220.16;;;15.44;45.32
30873;BME280;17579;42.690;2.586;2023-05-19T06:43:28;97214.19;;;15.41;45.26
30873;BME280;17579;42.690;2.586;2023-05-19T06:46:01;97212.16;;;15.44;45.03
30873;BME280;17579;42.690;2.586;2023-05-19T06:48:37;97213.84;;;15.45;45.00
30873;BME280;17579;42.690;2.586;2023-05-19T06:51:10;97211.00;;;15.46;45.15
30873;BME280;17579;42.690;2.586;2023-05-19T06:53:47;97215.16;;;15.49;44.94
30873;BME280;17579;42.690;2.586;2023-05-19T06:56:23;97208.16;;;15.48;44.93
30873;BME280;17579;42.690;2.586;2023-05-19T06:59:04;97212.41;;;15.57;44.66
30873;BME280;17579;42.690;2.586;2023-05-19T07:01:58;97209.38;;;15.60;44.74
30873;BME280;17579;42.690;2.586;2023-05-19T07:04:46;97210.31;;;15.67;44.83
30873;BME280;17579;42.690;2.586;2023-05-19T07:07:26;97211.63;;;15.71;44.82
30873;BME280;17579;42.690;2.586;2023-05-19T07:09:55;97222.94;;;15.82;44.71
30873;BME280;17579;42.690;2.586;2023-05-19T07:12:28;97207.88;;;15.89;44.40
30873;BME280;17579;42.690;2.586;2023-05-19T07:14:59;97221.53;;;15.86;44.37
30873;BME280;17579;42.690;2.586;2023-05-19T07:17:45;97219.72;;;15.86;44.58
30873;BME280;17579;42.690;2.586;2023-05-19T07:20:20;97229.28;;;15.81;44.65
30873;BME280;17579;42.690;2.586;2023-05-19T07:22:51;97228.91;;;15.84;44.79
30873;BME280;17579;42.690;2.586;2023-05-19T07:25:28;97230.09;;;15.81;44.59
30873;BME280;17579;42.690;2.586;2023-05-19T07:28:05;97226.78;;;15.79;44.82
30873;BME280;17579;42.690;2.586;2023-05-19T07:33:34;97230.41;;;15.78;44.90
30873;BME280;17579;42.690;2.586;2023-05-19T07:36:20;97240.78;;;15.73;45.03
30873;BME280;17579;42.690;2.586;2023-05-19T07:39:00;97231.59;;;15.75;45.16
30873;BME280;17579;42.690;2.586;2023-05-19T07:41:26;97241.59;;;15.82;45.20
30873;BME280;17579;42.690;2.586;2023-05-19T07:43:54;97235.06;;;15.84;45.07
30873;BME280;17579;42.690;2.586;2023-05-19T07:46:27;97234.88;;;15.86;44.91
30873;BME280;17579;42.690;2.586;2023-05-19T07:49:05;97224.50;;;15.91;45.21
30873;BME280;17579;42.690;2.586;2023-05-19T07:51:34;97230.47;;;15.93;45.35
30873;BME280;17579;42.690;2.586;2023-05-19T07:54:00;97228.94;;;15.99;45.34
30873;BME280;17579;42.690;2.586;2023-05-19T07:56:29;97237.97;;;15.98;45.17
30873;BME280;17579;42.690;2.586;2023-05-19T07:59:11;97234.09;;;16.00;45.27
30873;BME280;17579;42.690;2.586;2023-05-19T08:01:40;97236.44;;;16.03;44.86
30873;BME280;17579;42.690;2.586;2023-05-19T08:04:09;97234.94;;;16.01;44.87
30873;BME280;17579;42.690;2.586;2023-05-19T08:06:37;97228.94;;;15.99;44.96
30873;BME280;17579;42.690;2.586;2023-05-19T08:09:14;97226.38;;;15.90;45.31
30873;BME280;17579;42.690;2.586;2023-05-19T08:11:47;97223.69;;;15.90;45.11
30873;BME280;17579;42.690;2.586;2023-05-19T08:14:16;97224.69;;;15.89;45.19
30873;BME280;17579;42.690;2.586;2023-05-19T08:16:46;97222.84;;;15.90;45.50
30873;BME280;17579;42.690;2.586;2023-05-19T08:19:14;97225.81;;;15.95;45.02
30873;BME280;17579;42.690;2.586;2023-05-19T08:21:40;97224.16;;;15.94;45.10
30873;BME280;17579;42.690;2.586;2023-05-19T08:24:15;97219.81;;;15.93;45.11
30873;BME280;17579;42.690;2.586;2023-05-19T08:29:33;97222.97;;;15.97;45.27
30873;BME280;17579;42.690;2.586;2023-05-19T08:31:59;97223.78;;;15.97;45.31
30873;BME280;17579;42.690;2.586;2023-05-19T08:34:30;97224.28;;;16.01;45.50
30873;BME280;17579;42.690;2.586;2023-05-19T08:37:25;97227.31;;;15.98;45.21
30873;BME280;17579;42.690;2.586;2023-05-19T08:39:53;97231.34;;;16.08;45.11
30873;BME280;17579;42.690;2.586;2023-05-19T08:42:25;97220.25;;;16.05;44.91
30873;BME280;17579;42.690;2.586;2023-05-19T08:45:27;97221.78;;;15.99;45.15
30873;BME280;17579;42.690;2.586;2023-05-19T08:48:11;97215.53;;;16.07;44.98
30873;BME280;17579;42.690;2.586;2023-05-19T08:50:43;97224.72;;;16.04;45.30
30873;BME280;17579;42.690;2.586;2023-05-19T08:53:58;97218.56;;;16.04;45.17
30873;BME280;17579;42.690;2.586;2023-05-19T08:56:23;97208.00;;;16.10;45.00
30873;BME280;17579;42.690;2.586;2023-05-19T08:58:52;97207.28;;;16.17;44.93
30873;BME280;17579;42.690;2.586;2023-05-19T09:01:19;97220.63;;;16.17;45.26
30873;BME280;17579;42.690;2.586;2023-05-19T09:03:52;97221.56;;;16.24;45.25
30873;BME280;17579;42.690;2.586;2023-05-19T09:08:59;97219.63;;;16.33;44.70
30873;BME280;17579;42.690;2.586;2023-05-19T09:11:30;97222.38;;;16.24;44.78
30873;BME280;17579;42.690;2.586;2023-05-19T09:14:04;97227.53;;;16.26;45.15
30873;BME280;17579;42.690;2.586;2023-05-19T09:16:33;97235.53;;;16.26;44.84
30873;BME280;17579;42.690;2.586;2023-05-19T09:19:41;97232.34;;;16.31;45.16
30873;BME280;17579;42.690;2.586;2023-05-19T09:22:09;97236.66;;;16.32;45.28
30873;BME280;17579;42.690;2.586;2023-05-19T09:24:35;97231.31;;;16.32;45.27
30873;BME280;17579;42.690;2.586;2023-05-19T09:27:13;97235.81;;;16.31;45.39
30873;BME280;17579;42.690;2.586;2023-05-19T09:29:47;97231.31;;;16.32;45.31
30873;BME280;17579;42.690;2.586;2023-05-19T09:32:24;97221.38;;;16.25;45.60
30873;BME280;17579;42.690;2.586;2023-05-19T09:34:53;97222.47;;;16.31;45.95
30873;BME280;17579;42.690;2.586;2023-05-19T09:37:45;97228.75;;;16.23;45.67
30873;BME280;17579;42.690;2.586;2023-05-19T09:40:16;97221.09;;;16.35;45.77
30873;BME280;17579;42.690;2.586;2023-05-19T09:43:04;97216.78;;;16.34;45.49
30873;BME280;17579;42.690;2.586;2023-05-19T09:45:34;97223.22;;;16.40;45.35
30873;BME280;17579;42.690;2.586;2023-05-19T09:48:11;97220.66;;;16.47;45.24
30873;BME280;17579;42.690;2.586;2023-05-19T09:50:42;97223.03;;;16.41;45.52
30873;BME280;17579;42.690;2.586;2023-05-19T09:53:33;97221.28;;;16.49;45.25
30873;BME280;17579;42.690;2.586;2023-05-19T09:59:27;97222.22;;;16.56;45.01
30873;BME280;17579;42.690;2.586;2023-05-19T10:04:47;97231.03;;;16.86;44.98
30873;BME280;17579;42.690;2.586;2023-05-19T10:07:21;97224.34;;;16.90;44.50
30873;BME280;17579;42.690;2.586;2023-05-19T10:09:55;97220.75;;;16.98;44.28
30873;BME280;17579;42.690;2.586;2023-05-19T10:12:21;97202.13;;;17.05;44.26
30873;BME280;17579;42.690;2.586;2023-05-19T10:14:55;97212.81;;;17.05;43.77
30873;BME280;17579;42.690;2.586;2023-05-19T10:17:30;97227.28;;;17.10;43.89
30873;BME280;17579;42.690;2.586;2023-05-19T10:20:20;97218.19;;;17.26;43.60
30873;BME280;17579;42.690;2.586;2023-05-19T10:22:53;97205.44;;;17.43;43.11
30873;BME280;17579;42.690;2.586;2023-05-19T10:25:19;97208.19;;;17.50;42.86
30873;BME280;17579;42.690;2.586;2023-05-19T10:27:55;97214.53;;;17.49;43.15
30873;BME280;17579;42.690;2.586;2023-05-19T10:30:32;97218.13;;;17.56;42.55
30873;BME280;17579;42.690;2.586;2023-05-19T10:33:05;97212.00;;;17.62;42.36
30873;BME280;17579;42.690;2.586;2023-05-19T10:35:48;97209.78;;;17.66;42.23
30873;BME280;17579;42.690;2.586;2023-05-19T10:41:12;97202.97;;;17.63;41.71
30873;BME280;17579;42.690;2.586;2023-05-19T10:43:58;97210.78;;;17.65;42.39
30873;BME280;17579;42.690;2.586;2023-05-19T10:46:41;97201.38;;;17.69;41.63
30873;BME280;17579;42.690;2.586;2023-05-19T10:49:44;97203.03;;;17.70;42.10
30873;BME280;17579;42.690;2.586;2023-05-19T10:52:17;97209.97;;;17.86;41.75
30873;BME280;17579;42.690;2.586;2023-05-19T10:54:49;97194.16;;;17.91;41.59
30873;BME280;17579;42.690;2.586;2023-05-19T10:57:40;97202.56;;;17.88;41.65
30873;BME280;17579;42.690;2.586;2023-05-19T11:01:00;97207.69;;;18.05;40.97
30873;BME280;17579;42.690;2.586;2023-05-19T11:03:15;97207.78;;;18.18;41.10
30873;BME280;17579;42.690;2.586;2023-05-19T11:05:50;97211.78;;;18.29;40.94
30873;BME280;17579;42.690;2.586;2023-05-19T11:11:15;97194.78;;;18.50;41.21
30873;BME280;17579;42.690;2.586;2023-05-19T11:13:49;97203.97;;;18.69;40.08
30873;BME280;17579;42.690;2.586;2023-05-19T11:16:27;97198.81;;;18.67;40.98
30873;BME280;17579;42.690;2.586;2023-05-19T11:21:47;97193.63;;;18.94;39.83
30873;BME280;17579;42.690;2.586;2023-05-19T11:24:38;97185.22;;;19.11;40.30
30873;BME280;17579;42.690;2.586;2023-05-19T11:29:36;97160.34;;;19.37;39.06
30873;BME280;17579;42.690;2.586;2023-05-19T11:32:14;97161.19;;;19.44;39.14
30873;BME280;17579;42.690;2.586;2023-05-19T11:38:06;97168.25;;;19.79;38.73
30873;BME280;17579;42.690;2.586;2023-05-19T11:40:52;97142.25;;;19.93;38.08
30873;BME280;17579;42.690;2.586;2023-05-19T11:43:21;97160.38;;;20.04;38.27
30873;BME280;17579;42.690;2.586;2023-05-19T11:45:54;97163.50;;;20.14;37.91
30873;BME280;17579;42.690;2.586;2023-05-19T11:48:46;97154.19;;;20.23;37.68
30873;BME280;17579;42.690;2.586;2023-05-19T11:51:24;97159.13;;;20.33;37.28
30873;BME280;17579;42.690;2.586;2023-05-19T11:53:54;97145.47;;;20.41;36.57
30873;BME280;17579;42.690;2.586;2023-05-19T11:56:20;97144.63;;;20.48;36.42
30873;BME280;17579;42.690;2.586;2023-05-19T11:58:59;97146.47;;;20.54;36.36
30873;BME280;17579;42.690;2.586;2023-05-19T12:01:47;97149.53;;;20.64;36.59
30873;BME280;17579;42.690;2.586;2023-05-19T12:04:35;97135.91;;;20.72;35.98
30873;BME280;17579;42.690;2.586;2023-05-19T12:07:13;97134.63;;;20.82;35.67
30873;BME280;17579;42.690;2.586;2023-05-19T12:09:44;97137.84;;;20.97;35.00
30873;BME280;17579;42.690;2.586;2023-05-19T12:12:23;97134.63;;;21.20;34.94
30873;BME280;17579;42.690;2.586;2023-05-19T12:17:19;97126.00;;;21.75;34.36
30873;BME280;17579;42.690;2.586;2023-05-19T12:19:49;97133.94;;;22.14;33.71
30873;BME280;17579;42.690;2.586;2023-05-19T12:22:21;97128.41;;;22.34;32.78
30873;BME280;17579;42.690;2.586;2023-05-19T12:25:16;97127.94;;;22.56;33.58
30873;BME280;17579;42.690;2.586;2023-05-19T12:28:05;97127.59;;;23.01;32.27
30873;BME280;17579;42.690;2.586;2023-05-19T12:30:46;97128.19;;;23.22;32.44
30873;BME280;17579;42.690;2.586;2023-05-19T12:33:44;97129.91;;;23.46;31.71
30873;BME280;17579;42.690;2.586;2023-05-19T12:36:19;97127.47;;;23.80;31.77
30873;BME280;17579;42.690;2.586;2023-05-19T12:38:54;97126.03;;;24.08;31.32
30873;BME280;17579;42.690;2.586;2023-05-19T12:41:24;97125.41;;;24.06;30.72
30873;BME280;17579;42.690;2.586;2023-05-19T12:43:53;97110.75;;;24.26;30.12
30873;BME280;17579;42.690;2.586;2023-05-19T12:46:45;97112.06;;;23.57;31.36
30873;BME280;17579;42.690;2.586;2023-05-19T12:49:32;97118.94;;;23.29;30.69
30873;BME280;17579;42.690;2.586;2023-05-19T12:52:00;97133.69;;;22.78;31.62
30873;BME280;17579;42.690;2.586;2023-05-19T12:54:49;97137.22;;;22.16;32.34
30873;BME280;17579;42.690;2.586;2023-05-19T12:57:19;97146.28;;;21.78;32.45
30873;BME280;17579;42.690;2.586;2023-05-19T12:59:50;97140.94;;;21.39;32.87
30873;BME280;17579;42.690;2.586;2023-05-19T13:02:18;97149.81;;;21.01;33.47
30873;BME280;17579;42.690;2.586;2023-05-19T13:04:47;97138.59;;;20.72;33.72
30873;BME280;17579;42.690;2.586;2023-05-19T13:07:13;97133.88;;;20.48;34.25
30873;BME280;17579;42.690;2.586;2023-05-19T13:09:54;97142.41;;;20.24;34.82
30873;BME280;17579;42.690;2.586;2023-05-19T13:12:33;97142.44;;;20.04;34.54
30873;BME280;17579;42.690;2.586;2023-05-19T13:15:01;97150.09;;;19.87;34.99
30873;BME280;17579;42.690;2.586;2023-05-19T13:17:33;97144.91;;;19.66;35.54
30873;BME280;17579;42.690;2.586;2023-05-19T13:20:04;97137.03;;;19.51;35.60
30873;BME280;17579;42.690;2.586;2023-05-19T13:22:30;97146.53;;;19.40;35.67
30873;BME280;17579;42.690;2.586;2023-05-19T13:24:58;97141.94;;;19.27;35.97
30873;BME280;17579;42.690;2.586;2023-05-19T13:27:48;97148.28;;;19.06;36.24
30873;BME280;17579;42.690;2.586;2023-05-19T13:30:17;97148.09;;;19.01;36.54
30873;BME280;17579;42.690;2.586;2023-05-19T13:32:53;97150.94;;;18.93;36.68
30873;BME280;17579;42.690;2.586;2023-05-19T13:35:22;97143.88;;;18.85;36.72
30873;BME280;17579;42.690;2.586;2023-05-19T13:38:08;97144.22;;;18.68;36.95
30873;BME280;17579;42.690;2.586;2023-05-19T13:40:34;97133.91;;;18.65;36.90
30873;BME280;17579;42.690;2.586;2023-05-19T13:43:12;97144.34;;;18.53;37.01
30873;BME280;17579;42.690;2.586;2023-05-19T13:45:47;97140.97;;;18.38;37.27
30873;BME280;17579;42.690;2.586;2023-05-19T13:48:16;97146.72;;;18.35;37.81
30873;BME280;17579;42.690;2.586;2023-05-19T13:50:49;97142.78;;;18.31;37.91
30873;BME280;17579;42.690;2.586;2023-05-19T13:53:28;97144.19;;;18.27;37.83
30873;BME280;17579;42.690;2.586;2023-05-19T13:56:04;97133.28;;;18.22;38.13
30873;BME280;17579;42.690;2.586;2023-05-19T13:58:35;97138.38;;;18.16;37.87
30873;BME280;17579;42.690;2.586;2023-05-19T14:01:06;97138.56;;;18.15;38.19
30873;BME280;17579;42.690;2.586;2023-05-19T14:03:32;97143.28;;;18.13;37.92
30873;BME280;17579;42.690;2.586;2023-05-19T14:06:03;97136.28;;;18.12;38.03
30873;BME280;17579;42.690;2.586;2023-05-19T14:08:29;97151.09;;;18.14;38.35
30873;BME280;17579;42.690;2.586;2023-05-19T14:11:01;97139.97;;;18.11;38.55
30873;BME280;17579;42.690;2.586;2023-05-19T14:13:27;97141.84;;;18.10;38.77
30873;BME280;17579;42.690;2.586;2023-05-19T14:16:00;97138.72;;;18.07;39.03
30873;BME280;17579;42.690;2.586;2023-05-19T14:18:41;97136.81;;;18.00;39.04
30873;BME280;17579;42.690;2.586;2023-05-19T14:21:09;97135.81;;;18.02;39.02
30873;BME280;17579;42.690;2.586;2023-05-19T14:23:37;97138.84;;;17.98;39.89
30873;BME280;17579;42.690;2.586;2023-05-19T14:26:08;97142.13;;;17.94;40.16
30873;BME280;17579;42.690;2.586;2023-05-19T14:28:43;97137.97;;;17.91;40.13
30873;BME280;17579;42.690;2.586;2023-05-19T14:31:14;97141.72;;;17.97;41.61
30873;BME280;17579;42.690;2.586;2023-05-19T14:33:40;97135.31;;;17.91;42.81
30873;BME280;17579;42.690;2.586;2023-05-19T14:36:29;97139.56;;;17.86;43.22
30873;BME280;17579;42.690;2.586;2023-05-19T14:39:05;97133.97;;;17.80;43.95